sensor_id;sensor_type;location;lat;lon;timestamp;P1;durP1;ratioP1;P2;durP2;ratioP2
50880;SDS011;36858;47.832;-3.800;2023-03-11T00:00:07;0.50;;;0.50;;
50880;SDS011;36858;47.832;-3.800;2023-03-11T00:02:39;0.40;;;0.40;;
50880;SDS011;36858;47.832;-3.800;2023-03-11T00:05:06;0.60;;;0.60;;
50880;SDS011;36858;47.832;-3.800;2023-03-11T00:07:34;2.47;;;1.10;;
50880;SDS011;36858;47.832;-3.800;2023-03-11T00:10:03;2.43;;;0.70;;
50880;SDS011;36858;47.832;-3.800;2023-03-11T00:12:30;1.07;;;0.63;;
50880;SDS011;36858;47.832;-3.800;2023-03-11T00:14:56;1.10;;;0.70;;
50880;SDS011;36858;47.832;-3.800;2023-03-11T00:17:23;0.93;;;0.50;;
50880;SDS011;36858;47.832;-3.800;2023-03-11T00:19:50;0.70;;;0.63;;
50880;SDS011;36858;47.832;-3.800;2023-03-11T00:22:17;0.70;;;0.70;;
50880;SDS011;36858;47.832;-3.800;2023-03-11T00:24:44;0.60;;;0.60;;
50880;SDS011;36858;47.832;-3.800;2023-03-11T00:27:11;0.80;;;0.80;;
50880;SDS011;36858;47.832;-3.800;2023-03-11T00:29:38;0.70;;;0.70;;
50880;SDS011;36858;47.832;-3.800;2023-03-11T00:32:04;1.83;;;0.70;;
50880;SDS011;36858;47.832;-3.800;2023-03-11T00:34:31;0.93;;;0.60;;
50880;SDS011;36858;47.832;-3.800;2023-03-11T00:36:58;0.63;;;0.60;;
50880;SDS011;36858;47.832;-3.800;2023-03-11T00:39:25;0.60;;;0.60;;
50880;SDS011;36858;47.832;-3.800;2023-03-11T00:41:52;0.80;;;0.60;;
50880;SDS011;36858;47.832;-3.800;2023-03-11T00:44:19;1.13;;;1.10;;
50880;SDS011;36858;47.832;-3.800;2023-03-11T00:46:45;0.87;;;0.80;;
50880;SDS011;36858;47.832;-3.800;2023-03-11T00:49:12;1.27;;;0.70;;
50880;SDS011;36858;47.832;-3.800;2023-03-11T00:51:39;0.60;;;0.60;;
50880;SDS011;36858;47.832;-3.800;2023-03-11T00:54:06;0.70;;;0.70;;
50880;SDS011;36858;47.832;-3.800;2023-03-11T00:56:33;0.57;;;0.50;;
50880;SDS011;36858;47.832;-3.800;2023-03-11T00:59:00;1.73;;;0.50;;
50880;SDS011;36858;47.832;-3.800;2023-03-11T01:01:26;0.60;;;0.60;;
50880;SDS011;36858;47.832;-3.800;2023-03-11T01:03:53;0.97;;;0.80;;
50880;SDS011;36858;47.832;-3.800;2023-03-11T01:06:20;0.60;;;0.60;;
50880;SDS011;36858;47.832;-3.800;2023-03-11T01:08:48;0.80;;;0.80;;
50880;SDS011;36858;47.832;-3.800;2023-03-11T01:11:15;1.63;;;0.70;;
50880;SDS011;36858;47.832;-3.800;2023-03-11T01:13:42;2.00;;;0.60;;
50880;SDS011;36858;47.832;-3.800;2023-03-11T01:16:09;0.87;;;0.80;;
50880;SDS011;36858;47.832;-3.800;2023-03-11T01:18:36;1.20;;;0.90;;
50880;SDS011;36858;47.832;-3.800;2023-03-11T01:21:03;1.17;;;0.80;;
50880;SDS011;36858;47.832;-3.800;2023-03-11T01:23:30;0.97;;;0.93;;
50880;SDS011;36858;47.832;-3.800;2023-03-11T01:25:57;1.23;;;0.70;;
50880;SDS011;36858;47.832;-3.800;2023-03-11T01:28:24;0.70;;;0.70;;
50880;SDS011;36858;47.832;-3.800;2023-03-11T01:30:51;2.03;;;0.73;;
50880;SDS011;36858;47.832;-3.800;2023-03-11T01:33:18;0.77;;;0.77;;
50880;SDS011;36858;47.832;-3.800;2023-03-11T01:35:45;0.73;;;0.60;;
50880;SDS011;36858;47.832;-3.800;2023-03-11T01:38:15;1.77;;;0.63;;
50880;SDS011;36858;47.832;-3.800;2023-03-11T01:40:44;1.10;;;0.73;;
50880;SDS011;36858;47.832;-3.800;2023-03-11T01:48:56;1.47;;;0.60;;
50880;SDS011;36858;47.832;-3.800;2023-03-11T01:51:29;0.80;;;0.80;;
50880;SDS011;36858;47.832;-3.800;2023-03-11T01:54:00;0.70;;;0.70;;
50880;SDS011;36858;47.832;-3.800;2023-03-11T01:56:38;0.60;;;0.60;;
50880;SDS011;36858;47.832;-3.800;2023-03-11T01:59:06;0.87;;;0.80;;
50880;SDS011;36858;47.832;-3.800;2023-03-11T02:01:34;1.00;;;0.90;;
50880;SDS011;36858;47.832;-3.800;2023-03-11T02:04:03;1.00;;;0.90;;
50880;SDS011;36858;47.832;-3.800;2023-03-11T02:06:30;1.10;;;1.00;;
50880;SDS011;36858;47.832;-3.800;2023-03-11T02:08:58;0.80;;;0.80;;
50880;SDS011;36858;47.832;-3.800;2023-03-11T02:11:26;0.93;;;0.73;;
50880;SDS011;36858;47.832;-3.800;2023-03-11T02:13:55;1.10;;;1.00;;
50880;SDS011;36858;47.832;-3.800;2023-03-11T02:16:25;1.67;;;1.10;;
50880;SDS011;36858;47.832;-3.800;2023-03-11T02:18:52;0.80;;;0.80;;
50880;SDS011;36858;47.832;-3.800;2023-03-11T02:21:28;0.93;;;0.70;;
50880;SDS011;36858;47.832;-3.800;2023-03-11T02:27:00;1.50;;;0.80;;
50880;SDS011;36858;47.832;-3.800;2023-03-11T02:29:31;1.00;;;0.80;;
50880;SDS011;36858;47.832;-3.800;2023-03-11T02:32:00;1.03;;;0.93;;
50880;SDS011;36858;47.832;-3.800;2023-03-11T02:34:31;0.90;;;0.90;;
50880;SDS011;36858;47.832;-3.800;2023-03-11T02:36:59;0.90;;;0.83;;
50880;SDS011;36858;47.832;-3.800;2023-03-11T02:39:29;1.03;;;0.97;;
50880;SDS011;36858;47.832;-3.800;2023-03-11T02:44:34;0.80;;;0.80;;
50880;SDS011;36858;47.832;-3.800;2023-03-11T02:47:01;1.27;;;0.90;;
50880;SDS011;36858;47.832;-3.800;2023-03-11T02:49:28;1.10;;;0.90;;
50880;SDS011;36858;47.832;-3.800;2023-03-11T02:51:55;1.70;;;1.60;;
50880;SDS011;36858;47.832;-3.800;2023-03-11T02:54:22;1.93;;;1.00;;
50880;SDS011;36858;47.832;-3.800;2023-03-11T02:56:49;1.77;;;1.10;;
50880;SDS011;36858;47.832;-3.800;2023-03-11T02:59:16;2.67;;;1.37;;
50880;SDS011;36858;47.832;-3.800;2023-03-11T03:01:42;1.37;;;1.27;;
50880;SDS011;36858;47.832;-3.800;2023-03-11T03:04:09;1.00;;;0.90;;
50880;SDS011;36858;47.832;-3.800;2023-03-11T03:06:36;1.10;;;0.93;;
50880;SDS011;36858;47.832;-3.800;2023-03-11T03:09:03;1.03;;;1.00;;
50880;SDS011;36858;47.832;-3.800;2023-03-11T03:11:30;1.03;;;0.90;;
50880;SDS011;36858;47.832;-3.800;2023-03-11T03:13:57;2.37;;;0.90;;
50880;SDS011;36858;47.832;-3.800;2023-03-11T03:16:24;0.90;;;0.90;;
50880;SDS011;36858;47.832;-3.800;2023-03-11T03:18:51;0.87;;;0.87;;
50880;SDS011;36858;47.832;-3.800;2023-03-11T03:21:18;0.87;;;0.80;;
50880;SDS011;36858;47.832;-3.800;2023-03-11T03:23:45;1.53;;;0.90;;
50880;SDS011;36858;47.832;-3.800;2023-03-11T03:26:12;1.37;;;1.13;;
50880;SDS011;36858;47.832;-3.800;2023-03-11T03:28:40;1.10;;;1.00;;
50880;SDS011;36858;47.832;-3.800;2023-03-11T03:31:07;1.20;;;1.10;;
50880;SDS011;36858;47.832;-3.800;2023-03-11T03:33:35;1.80;;;1.10;;
50880;SDS011;36858;47.832;-3.800;2023-03-11T03:36:06;1.10;;;0.90;;
50880;SDS011;36858;47.832;-3.800;2023-03-11T03:38:34;3.43;;;1.00;;
50880;SDS011;36858;47.832;-3.800;2023-03-11T03:41:01;1.50;;;1.17;;
50880;SDS011;36858;47.832;-3.800;2023-03-11T03:43:28;0.90;;;0.90;;
50880;SDS011;36858;47.832;-3.800;2023-03-11T03:45:56;1.07;;;1.07;;
50880;SDS011;36858;47.832;-3.800;2023-03-11T03:48:23;1.10;;;0.93;;
50880;SDS011;36858;47.832;-3.800;2023-03-11T03:50:51;1.57;;;0.90;;
50880;SDS011;36858;47.832;-3.800;2023-03-11T03:53:18;1.60;;;1.43;;
50880;SDS011;36858;47.832;-3.800;2023-03-11T03:55:44;1.53;;;1.17;;
50880;SDS011;36858;47.832;-3.800;2023-03-11T03:58:11;1.37;;;0.90;;
50880;SDS011;36858;47.832;-3.800;2023-03-11T04:00:38;1.57;;;1.40;;
50880;SDS011;36858;47.832;-3.800;2023-03-11T04:03:05;1.03;;;0.97;;
50880;SDS011;36858;47.832;-3.800;2023-03-11T04:05:32;0.83;;;0.83;;
50880;SDS011;36858;47.832;-3.800;2023-03-11T04:07:59;1.33;;;1.10;;
50880;SDS011;36858;47.832;-3.800;2023-03-11T04:10:26;1.23;;;1.10;;
50880;SDS011;36858;47.832;-3.800;2023-03-11T04:12:53;1.40;;;1.03;;
50880;SDS011;36858;47.832;-3.800;2023-03-11T04:15:20;4.10;;;1.00;;
50880;SDS011;36858;47.832;-3.800;2023-03-11T04:17:47;0.70;;;0.70;;
50880;SDS011;36858;47.832;-3.800;2023-03-11T04:20:13;0.90;;;0.90;;
50880;SDS011;36858;47.832;-3.800;2023-03-11T04:22:40;1.00;;;0.87;;
50880;SDS011;36858;47.832;-3.800;2023-03-11T04:25:07;1.77;;;0.70;;
50880;SDS011;36858;47.832;-3.800;2023-03-11T04:27:34;2.13;;;0.93;;
50880;SDS011;36858;47.832;-3.800;2023-03-11T04:30:01;0.70;;;0.70;;
50880;SDS011;36858;47.832;-3.800;2023-03-11T04:32:28;0.93;;;0.93;;
50880;SDS011;36858;47.832;-3.800;2023-03-11T04:34:54;0.60;;;0.60;;
50880;SDS011;36858;47.832;-3.800;2023-03-11T04:37:21;1.23;;;1.00;;
50880;SDS011;36858;47.832;-3.800;2023-03-11T04:39:49;0.70;;;0.70;;
50880;SDS011;36858;47.832;-3.800;2023-03-11T08:56:50;15.23;;;2.97;;
50880;SDS011;36858;47.832;-3.800;2023-03-11T08:59:17;13.17;;;3.17;;
50880;SDS011;36858;47.832;-3.800;2023-03-11T09:01:44;11.67;;;2.80;;
50880;SDS011;36858;47.832;-3.800;2023-03-11T09:04:12;11.17;;;2.67;;
50880;SDS011;36858;47.832;-3.800;2023-03-11T09:06:42;8.73;;;2.37;;
50880;SDS011;36858;47.832;-3.800;2023-03-11T09:09:13;15.57;;;4.37;;
50880;SDS011;36858;47.832;-3.800;2023-03-11T09:11:41;8.97;;;3.23;;
50880;SDS011;36858;47.832;-3.800;2023-03-11T09:14:08;15.53;;;5.27;;
50880;SDS011;36858;47.832;-3.800;2023-03-11T09:16:35;14.20;;;4.07;;
50880;SDS011;36858;47.832;-3.800;2023-03-11T09:19:02;13.80;;;4.33;;
50880;SDS011;36858;47.832;-3.800;2023-03-11T09:21:32;18.07;;;3.93;;
50880;SDS011;36858;47.832;-3.800;2023-03-11T09:24:00;13.30;;;3.83;;
50880;SDS011;36858;47.832;-3.800;2023-03-11T09:26:27;12.63;;;4.17;;
50880;SDS011;36858;47.832;-3.800;2023-03-11T09:28:54;14.90;;;4.00;;
50880;SDS011;36858;47.832;-3.800;2023-03-11T09:31:20;12.67;;;3.80;;
50880;SDS011;36858;47.832;-3.800;2023-03-11T09:33:48;15.93;;;3.90;;
50880;SDS011;36858;47.832;-3.800;2023-03-11T09:36:18;13.00;;;3.40;;
50880;SDS011;36858;47.832;-3.800;2023-03-11T09:38:46;15.73;;;4.17;;
50880;SDS011;36858;47.832;-3.800;2023-03-11T09:43:53;16.30;;;4.73;;
50880;SDS011;36858;47.832;-3.800;2023-03-11T09:52:08;22.30;;;5.10;;
50880;SDS011;36858;47.832;-3.800;2023-03-11T09:54:38;20.13;;;4.93;;
50880;SDS011;36858;47.832;-3.800;2023-03-11T09:57:14;17.30;;;4.37;;
50880;SDS011;36858;47.832;-3.800;2023-03-11T09:59:44;20.27;;;5.30;;
50880;SDS011;36858;47.832;-3.800;2023-03-11T10:02:13;17.53;;;4.13;;
50880;SDS011;36858;47.832;-3.800;2023-03-11T10:07:24;18.43;;;4.07;;
50880;SDS011;36858;47.832;-3.800;2023-03-11T10:09:55;15.00;;;4.27;;
50880;SDS011;36858;47.832;-3.800;2023-03-11T10:21:14;15.40;;;4.67;;
50880;SDS011;36858;47.832;-3.800;2023-03-11T10:24:10;19.30;;;5.03;;
50880;SDS011;36858;47.832;-3.800;2023-03-11T10:26:43;20.23;;;5.03;;
50880;SDS011;36858;47.832;-3.800;2023-03-11T10:31:47;21.33;;;5.17;;
50880;SDS011;36858;47.832;-3.800;2023-03-11T10:36:53;15.73;;;4.83;;
50880;SDS011;36858;47.832;-3.800;2023-03-11T10:39:36;16.10;;;4.53;;
50880;SDS011;36858;47.832;-3.800;2023-03-11T10:42:04;17.60;;;4.67;;
50880;SDS011;36858;47.832;-3.800;2023-03-11T10:44:35;17.87;;;5.10;;
50880;SDS011;36858;47.832;-3.800;2023-03-11T10:47:04;26.80;;;5.20;;
50880;SDS011;36858;47.832;-3.800;2023-03-11T10:49:32;20.80;;;6.10;;
50880;SDS011;36858;47.832;-3.800;2023-03-11T10:51:59;24.40;;;5.80;;
50880;SDS011;36858;47.832;-3.800;2023-03-11T10:56:58;23.10;;;5.87;;
50880;SDS011;36858;47.832;-3.800;2023-03-11T10:59:47;18.87;;;4.67;;
50880;SDS011;36858;47.832;-3.800;2023-03-11T11:02:21;25.80;;;6.37;;
50880;SDS011;36858;47.832;-3.800;2023-03-11T11:07:43;29.50;;;6.20;;
50880;SDS011;36858;47.832;-3.800;2023-03-11T11:15:37;27.67;;;5.93;;
50880;SDS011;36858;47.832;-3.800;2023-03-11T11:23:27;29.80;;;6.93;;
50880;SDS011;36858;47.832;-3.800;2023-03-11T11:25:59;26.30;;;7.27;;
50880;SDS011;36858;47.832;-3.800;2023-03-11T11:28:30;40.00;;;8.17;;
50880;SDS011;36858;47.832;-3.800;2023-03-11T11:31:00;28.13;;;6.93;;
50880;SDS011;36858;47.832;-3.800;2023-03-11T11:33:30;27.87;;;6.60;;
50880;SDS011;36858;47.832;-3.800;2023-03-11T11:36:13;34.83;;;8.40;;
50880;SDS011;36858;47.832;-3.800;2023-03-11T11:38:41;32.40;;;8.43;;
50880;SDS011;36858;47.832;-3.800;2023-03-11T11:41:12;35.20;;;9.10;;
50880;SDS011;36858;47.832;-3.800;2023-03-11T11:43:53;48.57;;;10.50;;
50880;SDS011;36858;47.832;-3.800;2023-03-11T11:57:13;35.67;;;9.00;;
50880;SDS011;36858;47.832;-3.800;2023-03-11T11:59:41;30.40;;;7.67;;
50880;SDS011;36858;47.832;-3.800;2023-03-11T12:05:06;27.13;;;7.20;;
50880;SDS011;36858;47.832;-3.800;2023-03-11T12:15:33;28.80;;;7.27;;
50880;SDS011;36858;47.832;-3.800;2023-03-11T12:18:10;29.33;;;8.20;;
50880;SDS011;36858;47.832;-3.800;2023-03-11T12:20:45;39.00;;;9.67;;
50880;SDS011;36858;47.832;-3.800;2023-03-11T12:26:15;33.33;;;8.57;;
50880;SDS011;36858;47.832;-3.800;2023-03-11T12:28:47;37.03;;;8.60;;
50880;SDS011;36858;47.832;-3.800;2023-03-11T12:31:16;37.17;;;8.57;;
50880;SDS011;36858;47.832;-3.800;2023-03-11T12:33:57;38.13;;;9.77;;
50880;SDS011;36858;47.832;-3.800;2023-03-11T12:36:35;41.97;;;8.70;;
50880;SDS011;36858;47.832;-3.800;2023-03-11T12:39:04;37.13;;;8.27;;
50880;SDS011;36858;47.832;-3.800;2023-03-11T12:41:38;37.43;;;10.67;;
50880;SDS011;36858;47.832;-3.800;2023-03-11T12:44:21;33.27;;;8.17;;
50880;SDS011;36858;47.832;-3.800;2023-03-11T12:49:28;36.67;;;8.13;;
50880;SDS011;36858;47.832;-3.800;2023-03-11T12:54:30;37.03;;;8.73;;
50880;SDS011;36858;47.832;-3.800;2023-03-11T13:07:49;38.77;;;9.43;;
50880;SDS011;36858;47.832;-3.800;2023-03-11T13:18:41;32.37;;;7.43;;
50880;SDS011;36858;47.832;-3.800;2023-03-11T13:32:42;27.07;;;6.77;;
50880;SDS011;36858;47.832;-3.800;2023-03-11T13:44:19;33.03;;;8.57;;
50880;SDS011;36858;47.832;-3.800;2023-03-11T13:46:52;36.33;;;7.83;;
50880;SDS011;36858;47.832;-3.800;2023-03-11T13:49:32;32.60;;;7.00;;
50880;SDS011;36858;47.832;-3.800;2023-03-11T13:52:01;26.73;;;8.00;;
50880;SDS011;36858;47.832;-3.800;2023-03-11T13:57:03;33.20;;;7.70;;
50880;SDS011;36858;47.832;-3.800;2023-03-11T13:59:31;31.40;;;7.40;;
50880;SDS011;36858;47.832;-3.800;2023-03-11T14:04:30;34.53;;;7.70;;
50880;SDS011;36858;47.832;-3.800;2023-03-11T14:06:58;33.60;;;7.10;;
50880;SDS011;36858;47.832;-3.800;2023-03-11T14:09:26;37.57;;;7.33;;
50880;SDS011;36858;47.832;-3.800;2023-03-11T14:11:54;32.83;;;7.57;;
50880;SDS011;36858;47.832;-3.800;2023-03-11T14:16:56;26.20;;;7.43;;
50880;SDS011;36858;47.832;-3.800;2023-03-11T14:19:26;36.03;;;7.57;;
50880;SDS011;36858;47.832;-3.800;2023-03-11T14:21:54;38.00;;;7.97;;
50880;SDS011;36858;47.832;-3.800;2023-03-11T14:24:22;28.83;;;6.60;;
50880;SDS011;36858;47.832;-3.800;2023-03-11T14:26:51;37.03;;;8.10;;
50880;SDS011;36858;47.832;-3.800;2023-03-11T14:29:31;40.60;;;9.20;;
50880;SDS011;36858;47.832;-3.800;2023-03-11T14:31:59;33.50;;;7.43;;
50880;SDS011;36858;47.832;-3.800;2023-03-11T14:34:27;55.83;;;9.97;;
50880;SDS011;36858;47.832;-3.800;2023-03-11T14:36:55;45.10;;;9.20;;
50880;SDS011;36858;47.832;-3.800;2023-03-11T14:39:27;34.40;;;8.73;;
50880;SDS011;36858;47.832;-3.800;2023-03-11T14:44:52;41.63;;;8.63;;
50880;SDS011;36858;47.832;-3.800;2023-03-11T14:50:04;43.50;;;10.37;;
50880;SDS011;36858;47.832;-3.800;2023-03-11T14:53:16;37.37;;;8.33;;
50880;SDS011;36858;47.832;-3.800;2023-03-11T14:55:40;37.03;;;7.90;;
50880;SDS011;36858;47.832;-3.800;2023-03-11T14:58:23;41.10;;;8.13;;
50880;SDS011;36858;47.832;-3.800;2023-03-11T15:05:58;37.80;;;7.67;;
50880;SDS011;36858;47.832;-3.800;2023-03-11T15:09:15;43.47;;;8.30;;
50880;SDS011;36858;47.832;-3.800;2023-03-11T15:11:23;44.17;;;9.60;;
50880;SDS011;36858;47.832;-3.800;2023-03-11T15:14:08;40.17;;;7.70;;
50880;SDS011;36858;47.832;-3.800;2023-03-11T15:16:40;39.27;;;8.80;;
50880;SDS011;36858;47.832;-3.800;2023-03-11T15:19:20;38.93;;;9.40;;
50880;SDS011;36858;47.832;-3.800;2023-03-11T15:21:53;43.70;;;8.63;;
50880;SDS011;36858;47.832;-3.800;2023-03-11T15:24:24;29.97;;;8.40;;
50880;SDS011;36858;47.832;-3.800;2023-03-11T15:27:00;44.80;;;9.80;;
50880;SDS011;36858;47.832;-3.800;2023-03-11T15:29:30;37.10;;;8.67;;
50880;SDS011;36858;47.832;-3.800;2023-03-11T15:31:58;44.87;;;10.00;;
50880;SDS011;36858;47.832;-3.800;2023-03-11T15:34:30;39.43;;;9.23;;
50880;SDS011;36858;47.832;-3.800;2023-03-11T15:36:59;30.87;;;8.33;;
50880;SDS011;36858;47.832;-3.800;2023-03-11T15:47:35;38.53;;;8.00;;
50880;SDS011;36858;47.832;-3.800;2023-03-11T15:50:17;39.00;;;7.87;;
50880;SDS011;36858;47.832;-3.800;2023-03-11T15:52:55;31.47;;;7.67;;
50880;SDS011;36858;47.832;-3.800;2023-03-11T15:55:24;34.03;;;7.63;;
50880;SDS011;36858;47.832;-3.800;2023-03-11T15:57:54;32.07;;;7.93;;
50880;SDS011;36858;47.832;-3.800;2023-03-11T16:00:26;36.90;;;8.47;;
50880;SDS011;36858;47.832;-3.800;2023-03-11T16:02:53;33.47;;;8.03;;
50880;SDS011;36858;47.832;-3.800;2023-03-11T16:05:21;30.03;;;6.73;;
50880;SDS011;36858;47.832;-3.800;2023-03-11T16:07:49;30.73;;;8.87;;
50880;SDS011;36858;47.832;-3.800;2023-03-11T16:10:17;41.07;;;9.37;;
50880;SDS011;36858;47.832;-3.800;2023-03-11T16:12:46;42.20;;;8.47;;
50880;SDS011;36858;47.832;-3.800;2023-03-11T16:15:23;34.50;;;7.37;;
50880;SDS011;36858;47.832;-3.800;2023-03-11T16:17:55;43.73;;;8.97;;
50880;SDS011;36858;47.832;-3.800;2023-03-11T16:20:24;40.43;;;10.23;;
50880;SDS011;36858;47.832;-3.800;2023-03-11T16:22:54;37.03;;;9.30;;
50880;SDS011;36858;47.832;-3.800;2023-03-11T16:27:50;46.33;;;9.03;;
50880;SDS011;36858;47.832;-3.800;2023-03-11T16:30:19;47.20;;;10.17;;
50880;SDS011;36858;47.832;-3.800;2023-03-11T16:32:46;36.20;;;8.93;;
50880;SDS011;36858;47.832;-3.800;2023-03-11T16:35:13;31.17;;;8.57;;
50880;SDS011;36858;47.832;-3.800;2023-03-11T16:37:40;39.40;;;8.27;;
50880;SDS011;36858;47.832;-3.800;2023-03-11T16:40:13;37.30;;;7.70;;
50880;SDS011;36858;47.832;-3.800;2023-03-11T16:42:41;39.57;;;9.37;;
50880;SDS011;36858;47.832;-3.800;2023-03-11T16:45:10;40.60;;;8.53;;
50880;SDS011;36858;47.832;-3.800;2023-03-11T16:47:38;33.20;;;7.07;;
50880;SDS011;36858;47.832;-3.800;2023-03-11T16:50:05;36.67;;;9.63;;
50880;SDS011;36858;47.832;-3.800;2023-03-11T16:52:32;28.03;;;6.33;;
50880;SDS011;36858;47.832;-3.800;2023-03-11T16:54:59;29.23;;;8.60;;
50880;SDS011;36858;47.832;-3.800;2023-03-11T16:57:26;35.23;;;7.20;;
50880;SDS011;36858;47.832;-3.800;2023-03-11T16:59:53;29.70;;;7.83;;
50880;SDS011;36858;47.832;-3.800;2023-03-11T17:02:20;34.47;;;8.47;;
50880;SDS011;36858;47.832;-3.800;2023-03-11T17:04:49;36.67;;;7.67;;
50880;SDS011;36858;47.832;-3.800;2023-03-11T17:07:16;29.93;;;8.30;;
50880;SDS011;36858;47.832;-3.800;2023-03-11T17:09:43;40.03;;;8.77;;
50880;SDS011;36858;47.832;-3.800;2023-03-11T17:12:10;44.77;;;8.70;;
50880;SDS011;36858;47.832;-3.800;2023-03-11T17:14:41;41.00;;;8.00;;
50880;SDS011;36858;47.832;-3.800;2023-03-11T17:17:08;39.60;;;9.73;;
50880;SDS011;36858;47.832;-3.800;2023-03-11T17:19:34;33.67;;;8.53;;
50880;SDS011;36858;47.832;-3.800;2023-03-11T17:22:01;38.93;;;8.17;;
50880;SDS011;36858;47.832;-3.800;2023-03-11T17:24:29;30.43;;;8.10;;
50880;SDS011;36858;47.832;-3.800;2023-03-11T17:26:56;28.40;;;8.07;;
50880;SDS011;36858;47.832;-3.800;2023-03-11T17:29:23;31.07;;;7.40;;
50880;SDS011;36858;47.832;-3.800;2023-03-11T17:31:50;37.73;;;8.30;;
50880;SDS011;36858;47.832;-3.800;2023-03-11T17:34:17;35.80;;;8.17;;
50880;SDS011;36858;47.832;-3.800;2023-03-11T17:36:43;33.77;;;7.23;;
50880;SDS011;36858;47.832;-3.800;2023-03-11T17:39:10;33.83;;;8.37;;
50880;SDS011;36858;47.832;-3.800;2023-03-11T17:41:37;33.93;;;8.30;;
50880;SDS011;36858;47.832;-3.800;2023-03-11T17:44:04;39.67;;;8.07;;
50880;SDS011;36858;47.832;-3.800;2023-03-11T17:46:32;37.17;;;9.70;;
50880;SDS011;36858;47.832;-3.800;2023-03-11T17:49:01;33.87;;;9.53;;
50880;SDS011;36858;47.832;-3.800;2023-03-11T17:51:28;39.40;;;8.73;;
50880;SDS011;36858;47.832;-3.800;2023-03-11T17:53:55;36.00;;;8.30;;
50880;SDS011;36858;47.832;-3.800;2023-03-11T17:56:22;34.40;;;8.77;;
50880;SDS011;36858;47.832;-3.800;2023-03-11T17:58:49;37.93;;;8.50;;
50880;SDS011;36858;47.832;-3.800;2023-03-11T18:01:20;39.60;;;9.37;;
50880;SDS011;36858;47.832;-3.800;2023-03-11T18:03:49;29.47;;;6.90;;
50880;SDS011;36858;47.832;-3.800;2023-03-11T18:06:16;36.80;;;7.70;;
50880;SDS011;36858;47.832;-3.800;2023-03-11T18:08:44;25.70;;;6.57;;
50880;SDS011;36858;47.832;-3.800;2023-03-11T18:11:12;26.33;;;6.17;;
50880;SDS011;36858;47.832;-3.800;2023-03-11T18:13:44;29.17;;;6.80;;
50880;SDS011;36858;47.832;-3.800;2023-03-11T18:16:15;23.90;;;6.13;;
50880;SDS011;36858;47.832;-3.800;2023-03-11T18:18:44;30.87;;;6.63;;
50880;SDS011;36858;47.832;-3.800;2023-03-11T18:21:18;34.37;;;6.50;;
50880;SDS011;36858;47.832;-3.800;2023-03-11T18:23:47;32.07;;;6.17;;
50880;SDS011;36858;47.832;-3.800;2023-03-11T18:26:15;27.23;;;7.10;;
50880;SDS011;36858;47.832;-3.800;2023-03-11T18:28:43;30.60;;;7.30;;
50880;SDS011;36858;47.832;-3.800;2023-03-11T18:33:39;28.30;;;6.83;;
50880;SDS011;36858;47.832;-3.800;2023-03-11T18:36:13;26.83;;;5.87;;
50880;SDS011;36858;47.832;-3.800;2023-03-11T18:38:44;28.27;;;6.23;;
50880;SDS011;36858;47.832;-3.800;2023-03-11T18:41:12;28.43;;;6.50;;
50880;SDS011;36858;47.832;-3.800;2023-03-11T18:43:39;26.83;;;6.40;;
50880;SDS011;36858;47.832;-3.800;2023-03-11T18:46:07;29.33;;;7.43;;
50880;SDS011;36858;47.832;-3.800;2023-03-11T18:48:35;35.57;;;7.60;;
50880;SDS011;36858;47.832;-3.800;2023-03-11T18:51:02;26.80;;;6.70;;
50880;SDS011;36858;47.832;-3.800;2023-03-11T18:53:29;32.33;;;6.40;;
50880;SDS011;36858;47.832;-3.800;2023-03-11T18:56:10;29.87;;;6.40;;
50880;SDS011;36858;47.832;-3.800;2023-03-11T18:58:38;34.00;;;6.80;;
50880;SDS011;36858;47.832;-3.800;2023-03-11T19:01:09;27.77;;;7.27;;
50880;SDS011;36858;47.832;-3.800;2023-03-11T19:03:40;24.87;;;6.73;;
50880;SDS011;36858;47.832;-3.800;2023-03-11T19:06:08;24.37;;;6.27;;
50880;SDS011;36858;47.832;-3.800;2023-03-11T19:08:35;32.03;;;6.30;;
50880;SDS011;36858;47.832;-3.800;2023-03-11T19:11:09;32.70;;;8.40;;
50880;SDS011;36858;47.832;-3.800;2023-03-11T19:13:37;31.47;;;6.63;;
50880;SDS011;36858;47.832;-3.800;2023-03-11T19:16:13;20.93;;;5.60;;
50880;SDS011;36858;47.832;-3.800;2023-03-11T19:18:42;27.77;;;6.40;;
50880;SDS011;36858;47.832;-3.800;2023-03-11T19:21:09;25.47;;;7.00;;
50880;SDS011;36858;47.832;-3.800;2023-03-11T19:23:37;31.70;;;6.67;;
50880;SDS011;36858;47.832;-3.800;2023-03-11T19:26:04;29.83;;;6.97;;
50880;SDS011;36858;47.832;-3.800;2023-03-11T19:28:31;25.93;;;6.30;;
50880;SDS011;36858;47.832;-3.800;2023-03-11T19:30:58;27.40;;;5.77;;
50880;SDS011;36858;47.832;-3.800;2023-03-11T19:33:25;31.20;;;6.87;;
50880;SDS011;36858;47.832;-3.800;2023-03-11T19:35:53;27.27;;;6.03;;
50880;SDS011;36858;47.832;-3.800;2023-03-11T19:38:22;27.57;;;6.03;;
50880;SDS011;36858;47.832;-3.800;2023-03-11T19:40:53;20.77;;;5.90;;
50880;SDS011;36858;47.832;-3.800;2023-03-11T19:43:24;28.20;;;6.03;;
50880;SDS011;36858;47.832;-3.800;2023-03-11T19:45:52;28.13;;;6.27;;
50880;SDS011;36858;47.832;-3.800;2023-03-11T19:48:19;29.90;;;6.80;;
50880;SDS011;36858;47.832;-3.800;2023-03-11T19:50:46;25.80;;;6.00;;
50880;SDS011;36858;47.832;-3.800;2023-03-11T19:53:14;20.63;;;5.67;;
50880;SDS011;36858;47.832;-3.800;2023-03-11T19:55:42;30.30;;;8.43;;
50880;SDS011;36858;47.832;-3.800;2023-03-11T19:58:16;21.77;;;5.17;;
